Time;durP1;ratioP1;P1;durP2;ratioP2;P2;SDS_P1;SDS_P2;PMS_P1;PMS_P2;Temp;Humidity;BMP_temperature;BMP_pressure;BME280_temperature;BME280_humidity;BME280_pressure;Samples;Min_cycle;Max_cycle;Signal;HPM_P1;HPM_P2
2023/08/17 00:00:08;;;;;;;3.15;1.08;;;;;;;18.27;69.57;102358.75;7401936;19;19994;-78
2023/08/17 00:02:36;;;;;;;4.70;0.90;;;;;;;18.23;69.35;102347.38;7404028;19;19981;-77
2023/08/17 00:05:06;;;;;;;2.47;0.90;;;;;;;18.22;69.92;102348.41;7403319;19;19919;-78
2023/08/17 00:07:34;;;;;;;2.40;1.15;;;;;;;18.24;69.32;102329.13;7401880;19;19942;-77
2023/08/17 00:10:03;;;;;;;1.80;0.90;;;;;;;18.24;69.21;102337.31;7403699;19;19915;-77
2023/08/17 00:12:32;;;;;;;3.92;1.08;;;;;;;18.22;69.68;102340.22;7403429;19;19919;-78
2023/08/17 00:15:04;;;;;;;3.53;1.20;;;;;;;18.21;69.47;102330.34;7404050;19;19918;-77
2023/08/17 00:17:33;;;;;;;1.83;1.05;;;;;;;18.20;69.20;102342.31;7403519;19;19927;-78
2023/08/17 00:20:04;;;;;;;2.22;1.00;;;;;;;18.18;69.30;102335.34;7402475;19;19922;-78
2023/08/17 00:22:33;;;;;;;2.05;0.88;;;;;;;18.18;69.08;102329.88;7404222;19;19922;-78
2023/08/17 00:25:03;;;;;;;5.65;1.30;;;;;;;18.16;69.64;102338.28;7403852;19;19932;-77
2023/08/17 00:27:31;;;;;;;2.88;1.10;;;;;;;18.16;69.32;102334.69;7402233;19;19921;-79
2023/08/17 00:30:00;;;;;;;2.15;0.95;;;;;;;18.13;69.51;102336.75;7403023;19;19974;-77
2023/08/17 00:32:32;;;;;;;1.20;0.70;;;;;;;18.13;69.48;102333.19;7402463;19;19911;-77
2023/08/17 00:35:00;;;;;;;4.55;0.90;;;;;;;18.09;69.71;102332.72;7402505;19;19938;-78
2023/08/17 00:37:29;;;;;;;2.75;0.80;;;;;;;18.09;69.44;102329.16;7401358;19;19926;-78
2023/08/17 00:39:57;;;;;;;3.88;0.88;;;;;;;18.05;69.50;102333.28;7400544;19;19915;-78
2023/08/17 00:42:26;;;;;;;5.20;1.08;;;;;;;18.03;69.36;102335.38;7402396;19;19918;-77
2023/08/17 00:44:55;;;;;;;2.60;1.00;;;;;;;17.98;69.84;102333.22;7402138;19;19938;-77
2023/08/17 00:47:23;;;;;;;4.00;0.90;;;;;;;17.97;69.60;102336.13;7402019;19;20348;-77
2023/08/17 00:49:55;;;;;;;2.63;0.90;;;;;;;17.96;69.46;102334.44;7402378;19;19919;-77
2023/08/17 00:52:25;;;;;;;3.17;1.05;;;;;;;17.92;70.06;102338.56;7402101;19;19934;-77
2023/08/17 00:54:54;;;;;;;4.55;1.00;;;;;;;17.91;69.83;102336.88;7401886;19;19959;-77
2023/08/17 00:57:23;;;;;;;2.03;0.80;;;;;;;17.90;70.21;102338.78;7402043;19;19942;-77
2023/08/17 00:59:53;;;;;;;2.63;0.70;;;;;;;17.87;70.04;102339.16;7400557;19;19914;-77
2023/08/17 01:02:22;;;;;;;2.72;0.80;;;;;;;17.86;70.16;102337.44;7406168;19;19919;-78
2023/08/17 01:04:54;;;;;;;3.40;0.90;;;;;;;17.85;70.09;102333.06;7401696;19;20272;-77
2023/08/17 01:07:23;;;;;;;7.40;1.38;;;;;;;17.85;70.27;102329.47;7401385;19;20252;-78
2023/08/17 01:09:52;;;;;;;3.95;0.90;;;;;;;17.83;70.46;102329.66;7399948;19;19919;-78
2023/08/17 01:12:31;;;;;;;2.47;1.10;;;;;;;17.81;70.85;102320.00;7401450;19;19918;-77
2023/08/17 01:15:10;;;;;;;0.95;0.70;;;;;;;17.80;70.51;102324.59;7401531;19;19922;-77
2023/08/17 01:17:45;;;;;;;2.72;0.98;;;;;;;17.78;70.95;102332.09;7401447;19;19929;-77
2023/08/17 01:20:18;;;;;;;3.10;1.02;;;;;;;17.77;70.88;102335.88;7398307;19;20392;-77
2023/08/17 01:22:51;;;;;;;3.28;1.02;;;;;;;17.76;70.77;102325.16;7401379;19;19918;-77
2023/08/17 01:25:22;;;;;;;1.98;0.77;;;;;;;17.74;71.15;102325.34;7400785;19;19938;-78
2023/08/17 01:27:51;;;;;;;3.20;0.85;;;;;;;17.72;70.68;102319.25;7400987;19;19914;-78
2023/08/17 01:30:21;;;;;;;2.15;0.90;;;;;;;17.71;70.78;102317.53;7400881;19;19926;-77
2023/08/17 01:32:55;;;;;;;3.17;1.00;;;;;;;17.70;71.26;102302.22;7401165;19;20254;-78
2023/08/17 01:35:31;;;;;;;1.75;0.73;;;;;;;17.72;71.15;102302.03;7400793;19;19922;-77
2023/08/17 01:38:03;;;;;;;3.15;1.30;;;;;;;17.73;71.41;102299.13;7399676;19;20431;-78
2023/08/17 01:40:36;;;;;;;3.50;0.95;;;;;;;17.73;71.57;102301.00;7398990;19;19926;-77
2023/08/17 01:43:06;;;;;;;2.95;0.80;;;;;;;17.73;71.32;102296.41;7400591;19;20252;-77
2023/08/17 01:45:35;;;;;;;3.00;0.77;;;;;;;17.73;71.29;102296.41;7400593;19;19919;-77
2023/08/17 01:48:04;;;;;;;3.05;0.80;;;;;;;17.75;70.95;102299.78;7400789;19;19935;-77
2023/08/17 01:50:33;;;;;;;1.95;0.73;;;;;;;17.77;71.25;102296.88;7400574;19;19938;-78
2023/08/17 01:53:02;;;;;;;3.88;1.02;;;;;;;17.77;71.36;102303.16;7400606;19;19954;-78
2023/08/17 01:55:31;;;;;;;1.88;0.80;;;;;;;17.75;71.37;102291.59;7400461;19;19918;-78
2023/08/17 01:58:02;;;;;;;3.33;0.88;;;;;;;17.75;71.49;102298.91;7400860;19;19910;-77
2023/08/17 02:00:31;;;;;;;2.15;1.10;;;;;;;17.74;71.40;102299.94;7402908;19;19926;-77
2023/08/17 02:02:59;;;;;;;3.17;1.00;;;;;;;17.74;71.54;102292.63;7401499;19;19915;-77
2023/08/17 02:05:29;;;;;;;2.83;0.98;;;;;;;17.74;71.44;102294.50;7402270;19;19919;-77
2023/08/17 02:07:57;;;;;;;4.55;1.10;;;;;;;17.76;71.64;102296.03;7403255;19;19932;-77
2023/08/17 02:10:26;;;;;;;2.95;0.90;;;;;;;17.78;71.65;102293.94;7409148;19;19929;-76
2023/08/17 02:12:54;;;;;;;3.92;1.42;;;;;;;17.78;71.36;102301.25;7410202;19;19930;-77
2023/08/17 02:15:26;;;;;;;3.88;1.10;;;;;;;17.78;71.59;102301.25;7406988;19;20339;-77
2023/08/17 02:17:55;;;;;;;3.00;0.80;;;;;;;17.76;71.43;102306.06;7404310;19;19929;-77
2023/08/17 02:20:23;;;;;;;2.15;0.82;;;;;;;17.72;71.40;102311.06;7400885;19;19918;-77
2023/08/17 02:22:52;;;;;;;2.67;0.88;;;;;;;17.72;71.91;102321.13;7401610;19;20241;-77
2023/08/17 02:25:21;;;;;;;6.60;1.40;;;;;;;17.69;72.21;102319.59;7400609;19;19910;-77
2023/08/17 02:27:49;;;;;;;3.05;1.20;;;;;;;17.69;71.96;102317.72;7401165;19;19930;-77
2023/08/17 02:30:18;;;;;;;3.67;1.20;;;;;;;17.71;71.79;102319.41;7400163;19;20250;-77
2023/08/17 02:32:49;;;;;;;3.03;1.15;;;;;;;17.70;71.80;102332.19;7399346;19;19911;-77
2023/08/17 02:35:18;;;;;;;2.63;1.10;;;;;;;17.68;72.36;102315.19;7399115;19;19914;-77
2023/08/17 02:37:47;;;;;;;3.15;1.30;;;;;;;17.66;72.01;102309.06;7397822;19;20336;-77
2023/08/17 02:40:15;;;;;;;4.65;1.40;;;;;;;17.63;72.25;102304.88;7398295;19;19922;-78
2023/08/17 02:42:44;;;;;;;3.13;1.23;;;;;;;17.62;72.16;102297.72;7399789;19;19931;-78
2023/08/17 02:45:12;;;;;;;2.80;1.30;;;;;;;17.62;72.48;102283.25;7399720;19;19919;-78
2023/08/17 02:47:41;;;;;;;8.10;1.33;;;;;;;17.60;72.32;102290.78;7399376;19;19922;-77
2023/08/17 02:50:13;;;;;;;4.38;1.30;;;;;;;17.59;72.56;102289.06;7397412;19;19915;-77
2023/08/17 02:52:41;;;;;;;3.40;1.02;;;;;;;17.56;72.37;102300.34;7399507;19;19938;-77
2023/08/17 02:55:11;;;;;;;3.40;1.30;;;;;;;17.53;72.85;102289.78;7401492;19;19918;-77
2023/08/17 02:57:39;;;;;;;4.90;1.35;;;;;;;17.51;72.57;102286.41;7402395;19;19930;-77
2023/08/17 03:00:09;;;;;;;4.60;1.30;;;;;;;17.49;72.58;102283.88;7400017;19;19914;-77
2023/08/17 03:02:38;;;;;;;2.63;1.02;;;;;;;17.46;73.18;102284.25;7399147;19;19910;-77
2023/08/17 03:05:07;;;;;;;3.20;1.10;;;;;;;17.43;73.10;102276.44;7398195;19;19918;-77
2023/08/17 03:07:38;;;;;;;3.05;1.10;;;;;;;17.41;73.16;102259.44;7398739;19;19947;-77
2023/08/17 03:10:08;;;;;;;3.95;1.00;;;;;;;17.39;73.73;102266.94;7400743;19;19918;-77
2023/08/17 03:12:37;;;;;;;2.75;1.00;;;;;;;17.36;73.42;102269.22;7400440;19;19942;-77
2023/08/17 03:15:07;;;;;;;5.88;1.20;;;;;;;17.35;73.46;102271.09;7399273;19;19919;-77
2023/08/17 03:17:36;;;;;;;3.88;1.02;;;;;;;17.32;73.38;102270.63;7398723;19;19915;-77
2023/08/17 03:20:06;;;;;;;3.30;1.30;;;;;;;17.30;73.77;102273.50;7397453;19;19946;-77
2023/08/17 03:22:37;;;;;;;1.25;0.85;;;;;;;17.26;73.99;102274.94;7398198;19;19918;-77
2023/08/17 03:25:07;;;;;;;3.05;1.00;;;;;;;17.23;73.76;102267.97;7397278;19;19915;-77
2023/08/17 03:27:36;;;;;;;3.65;0.90;;;;;;;17.20;73.97;102276.53;7397534;19;19925;-77
2023/08/17 03:30:05;;;;;;;6.05;1.02;;;;;;;17.18;73.96;102275.88;7397282;19;19915;-77
2023/08/17 03:32:34;;;;;;;2.88;1.08;;;;;;;17.16;74.53;102275.22;7400717;19;20364;-77
2023/08/17 03:35:03;;;;;;;3.80;1.13;;;;;;;17.11;74.67;102272.22;7404164;19;19914;-77
2023/08/17 03:37:32;;;;;;;5.57;1.17;;;;;;;17.09;74.19;102287.03;7402102;19;19940;-76
2023/08/17 03:40:03;;;;;;;2.30;1.00;;;;;;;17.09;74.17;102282.41;7402771;19;19952;-77
2023/08/17 03:42:32;;;;;;;2.95;1.15;;;;;;;17.08;75.03;102278.03;7404723;19;19938;-77
2023/08/17 03:45:00;;;;;;;3.63;1.05;;;;;;;17.12;74.98;102278.50;7403935;19;19943;-77
2023/08/17 03:47:29;;;;;;;3.25;1.08;;;;;;;17.13;74.56;102272.84;7403516;19;19938;-77
2023/08/17 03:49:58;;;;;;;3.55;1.02;;;;;;;17.14;75.05;102268.25;7403782;19;19914;-77
2023/08/17 03:52:26;;;;;;;3.97;1.10;;;;;;;17.15;75.05;102272.69;7403692;19;19957;-77
2023/08/17 03:54:55;;;;;;;3.28;1.00;;;;;;;17.13;75.18;102261.09;7403832;19;19966;-77
2023/08/17 03:57:26;;;;;;;3.00;1.20;;;;;;;17.11;75.61;102264.03;7403520;19;19942;-77
2023/08/17 03:59:55;;;;;;;5.55;1.30;;;;;;;17.12;75.75;102267.59;7404226;19;19922;-77
2023/08/17 04:02:23;;;;;;;7.35;1.45;;;;;;;17.09;75.69;102262.50;7403618;19;20261;-77
2023/08/17 04:04:52;;;;;;;2.40;0.80;;;;;;;17.08;75.64;102264.41;7403244;19;19934;-77
2023/08/17 04:07:24;;;;;;;6.57;1.33;;;;;;;17.08;75.55;102266.28;7403057;19;19910;-77
2023/08/17 04:09:52;;;;;;;4.95;1.20;;;;;;;17.07;75.61;102261.88;7403327;19;19914;-77
2023/08/17 04:12:21;;;;;;;3.42;0.98;;;;;;;17.03;75.58;102269.56;7403243;19;19915;-77
2023/08/17 04:14:52;;;;;;;5.00;1.17;;;;;;;17.01;75.49;102271.63;7403384;19;19918;-77
2023/08/17 04:17:21;;;;;;;4.40;1.10;;;;;;;17.00;75.92;102272.63;7404296;19;20372;-77
2023/08/17 04:19:50;;;;;;;1.98;0.88;;;;;;;16.99;75.51;102275.56;7402244;19;19907;-77
2023/08/17 04:22:19;;;;;;;5.03;1.05;;;;;;;16.96;76.32;102271.31;7402575;19;19933;-77
2023/08/17 04:24:48;;;;;;;2.35;1.13;;;;;;;16.96;76.26;102267.75;7402760;19;19918;-77
2023/08/17 04:27:17;;;;;;;5.38;0.93;;;;;;;16.96;76.03;102270.47;7402781;19;19925;-77
2023/08/17 04:29:46;;;;;;;2.55;1.00;;;;;;;16.95;75.87;102266.06;7402472;19;20379;-77
2023/08/17 04:32:19;;;;;;;5.43;1.40;;;;;;;16.92;76.17;102264.56;7402548;19;20302;-77
2023/08/17 04:34:48;;;;;;;6.13;1.23;;;;;;;16.93;76.13;102268.97;7402667;19;19911;-77
2023/08/17 04:37:17;;;;;;;4.40;1.20;;;;;;;16.94;76.46;102267.09;7401190;19;19922;-77
2023/08/17 04:39:48;;;;;;;4.38;1.10;;;;;;;16.94;75.93;102267.09;7401868;19;20367;-77
2023/08/17 04:42:16;;;;;;;3.78;1.23;;;;;;;16.93;76.06;102277.13;7402547;19;19922;-77
2023/08/17 04:44:45;;;;;;;4.03;1.10;;;;;;;16.92;76.41;102275.44;7400218;19;20256;-77
2023/08/17 04:47:14;;;;;;;5.93;1.55;;;;;;;16.91;76.38;102276.50;7402290;19;19915;-77
2023/08/17 04:49:45;;;;;;;4.78;1.50;;;;;;;16.91;76.27;102272.94;7402857;19;19919;-76
2023/08/17 04:52:13;;;;;;;5.55;1.20;;;;;;;16.89;76.09;102274.97;7402174;19;19923;-77
2023/08/17 04:54:42;;;;;;;4.30;1.20;;;;;;;16.86;76.56;102265.31;7401632;19;19950;-77
2023/08/17 04:57:11;;;;;;;4.97;1.35;;;;;;;16.83;76.75;102276.53;7402001;19;19942;-77
2023/08/17 04:59:39;;;;;;;2.83;1.20;;;;;;;16.81;76.35;102270.44;7403303;19;19915;-77
2023/08/17 05:02:08;;;;;;;3.90;1.15;;;;;;;16.77;77.31;102264.53;7401797;19;19914;-77
2023/08/17 05:04:39;;;;;;;4.78;1.05;;;;;;;16.71;77.17;102261.69;7401587;19;19923;-78
2023/08/17 05:07:10;;;;;;;4.60;1.83;;;;;;;16.69;76.84;102261.03;7401688;19;19922;-77
2023/08/17 05:09:39;;;;;;;6.00;1.15;;;;;;;16.65;77.17;102270.59;7402142;19;19915;-77
2023/08/17 05:12:09;;;;;;;4.07;1.25;;;;;;;16.61;77.20;102259.22;7402250;19;19922;-77
2023/08/17 05:14:37;;;;;;;2.97;1.30;;;;;;;16.60;77.01;102270.31;7402146;19;19937;-77
2023/08/17 05:17:06;;;;;;;5.45;1.38;;;;;;;16.60;77.19;102273.03;7402800;19;20242;-77
2023/08/17 05:19:35;;;;;;;6.05;1.40;;;;;;;16.59;77.40;102274.03;7404683;19;19914;-77
2023/08/17 05:22:03;;;;;;;4.40;1.33;;;;;;;16.57;77.88;102268.78;7407414;19;19929;-77
2023/08/17 05:24:36;;;;;;;3.38;1.10;;;;;;;16.59;77.73;102274.03;7407941;19;19928;-77
2023/08/17 05:27:05;;;;;;;2.35;1.00;;;;;;;16.61;77.79;102277.44;7414340;19;19919;-77
2023/08/17 05:29:35;;;;;;;5.63;1.40;;;;;;;16.61;77.41;102269.28;7418076;19;19925;-76
2023/08/17 05:32:06;;;;;;;4.82;1.05;;;;;;;16.61;77.42;102272.00;7412551;19;19921;-78
2023/08/17 05:34:35;;;;;;;5.25;1.02;;;;;;;16.60;78.32;102271.16;7410411;19;19922;-78
2023/08/17 05:37:06;;;;;;;2.83;1.15;;;;;;;16.59;77.78;102274.03;7401272;19;19931;-78
2023/08/17 05:39:40;;;;;;;2.38;1.10;;;;;;;16.60;78.11;102270.31;7401385;19;19926;-77
2023/08/17 05:42:09;;;;;;;6.82;1.35;;;;;;;16.63;77.94;102261.75;7399315;19;19914;-77
2023/08/17 05:44:38;;;;;;;4.45;1.38;;;;;;;16.62;77.98;102266.34;7400420;19;19928;-77
2023/08/17 05:47:07;;;;;;;3.70;1.30;;;;;;;16.63;77.68;102265.34;7400720;19;19935;-77
2023/08/17 05:49:37;;;;;;;2.72;1.42;;;;;;;16.65;77.83;102271.41;7400478;19;20289;-77
2023/08/17 05:52:07;;;;;;;4.05;0.98;;;;;;;16.67;78.12;102263.09;7400769;19;19918;-77
2023/08/17 05:54:38;;;;;;;3.97;0.90;;;;;;;16.73;77.67;102273.25;7399905;19;19919;-78
2023/08/17 05:57:10;;;;;;;2.92;0.80;;;;;;;16.75;77.81;102268.44;7401415;19;19950;-78
2023/08/17 05:59:39;;;;;;;4.40;0.93;;;;;;;16.79;77.86;102275.22;7405957;19;20256;-78
2023/08/17 06:02:10;;;;;;;3.53;0.93;;;;;;;16.85;77.21;102269.06;7403229;19;19910;-78
2023/08/17 06:04:38;;;;;;;3.55;0.93;;;;;;;16.92;77.52;102270.00;7403319;19;20019;-78
2023/08/17 06:07:08;;;;;;;3.20;1.00;;;;;;;16.99;76.97;102273.69;7402628;19;19918;-78
2023/08/17 06:09:39;;;;;;;2.35;0.93;;;;;;;17.05;77.14;102270.22;7401218;19;19915;-77
2023/08/17 06:12:08;;;;;;;4.13;1.00;;;;;;;17.10;76.99;102275.94;7401463;19;19939;-77
2023/08/17 06:14:37;;;;;;;3.47;1.33;;;;;;;17.14;76.78;102279.16;7400343;19;19919;-77
2023/08/17 06:17:06;;;;;;;5.90;1.20;;;;;;;17.19;76.50;102276.72;7400073;19;19923;-77
2023/08/17 06:19:35;;;;;;;3.08;1.10;;;;;;;17.24;76.36;102287.91;7400141;19;19919;-77
2023/08/17 06:22:04;;;;;;;4.28;1.25;;;;;;;17.32;76.40;102286.97;7398123;19;19918;-76
2023/08/17 06:24:33;;;;;;;4.75;1.20;;;;;;;17.39;76.33;102287.91;7399205;19;19923;-77
2023/08/17 06:27:04;;;;;;;3.35;0.90;;;;;;;17.42;75.92;102282.94;7399712;19;19918;-77
2023/08/17 06:29:33;;;;;;;2.25;1.02;;;;;;;17.43;76.03;102289.25;7398990;19;20280;-77
2023/08/17 06:32:02;;;;;;;4.00;0.85;;;;;;;17.48;75.59;102278.59;7399129;19;19922;-77
2023/08/17 06:34:31;;;;;;;3.25;1.20;;;;;;;17.52;75.68;102293.53;7398753;19;19934;-77
2023/08/17 06:37:00;;;;;;;7.35;1.08;;;;;;;17.55;75.47;102294.03;7397893;19;19918;-77
2023/08/17 06:39:29;;;;;;;3.78;0.90;;;;;;;17.55;75.42;102285.00;7398102;19;19919;-77
2023/08/17 06:41:58;;;;;;;2.95;1.13;;;;;;;17.60;75.32;102301.69;7397379;19;20344;-77
2023/08/17 06:44:30;;;;;;;2.30;1.20;;;;;;;17.60;75.15;102304.41;7398320;19;20257;-77
2023/08/17 06:46:59;;;;;;;3.00;0.88;;;;;;;17.60;75.33;102305.22;7398766;19;19942;-77
2023/08/17 06:49:29;;;;;;;3.67;0.90;;;;;;;17.61;75.24;102296.00;7398644;19;19957;-77
2023/08/17 06:51:58;;;;;;;2.58;0.93;;;;;;;17.63;74.81;102306.75;7398858;19;19919;-77
2023/08/17 06:54:26;;;;;;;2.13;0.80;;;;;;;17.66;74.97;102301.75;7398666;19;19922;-77
2023/08/17 06:56:55;;;;;;;3.88;0.95;;;;;;;17.68;74.29;102307.03;7399487;19;19915;-76
2023/08/17 06:59:23;;;;;;;3.60;1.27;;;;;;;17.74;74.34;102299.94;7400178;19;19929;-77
2023/08/17 07:01:55;;;;;;;2.25;0.90;;;;;;;17.79;74.10;102303.81;7397497;19;19944;-77
2023/08/17 07:04:23;;;;;;;3.28;0.82;;;;;;;17.79;73.91;102305.69;7398100;19;19922;-77
2023/08/17 07:06:52;;;;;;;5.85;0.95;;;;;;;17.80;73.86;102307.38;7399630;19;19922;-77
2023/08/17 07:09:21;;;;;;;2.10;0.90;;;;;;;17.81;74.00;102312.66;7403296;19;19915;-77
2023/08/17 07:11:49;;;;;;;3.60;0.80;;;;;;;17.83;73.57;102316.03;7404748;19;19938;-77
2023/08/17 07:14:18;;;;;;;3.58;1.00;;;;;;;17.85;73.47;102313.97;7404337;19;19946;-77
2023/08/17 07:16:46;;;;;;;4.15;0.80;;;;;;;17.89;73.87;102309.81;7404771;19;20262;-77
2023/08/17 07:19:18;;;;;;;4.95;0.90;;;;;;;17.90;73.34;102313.41;7404572;19;19929;-77
2023/08/17 07:21:46;;;;;;;3.60;0.80;;;;;;;17.88;73.55;102310.84;7403216;19;19915;-77
2023/08/17 07:24:16;;;;;;;3.42;0.70;;;;;;;17.92;73.14;102312.16;7404712;19;19915;-78
2023/08/17 07:26:46;;;;;;;3.63;0.70;;;;;;;17.95;73.77;102311.78;7404346;19;19919;-78
2023/08/17 07:29:14;;;;;;;2.40;0.68;;;;;;;17.98;72.97;102310.56;7404827;19;19932;-78
2023/08/17 07:31:43;;;;;;;2.92;0.70;;;;;;;18.01;72.83;102305.56;7405270;19;19910;-78
2023/08/17 07:34:12;;;;;;;3.78;0.70;;;;;;;18.02;73.08;102307.25;7404425;19;19970;-78
2023/08/17 07:36:44;;;;;;;4.22;0.88;;;;;;;18.04;72.71;102304.31;7403141;19;20241;-77
2023/08/17 07:39:13;;;;;;;2.88;1.00;;;;;;;18.09;72.52;102301.88;7403581;19;19970;-77
2023/08/17 07:41:42;;;;;;;2.10;0.63;;;;;;;18.15;72.52;102301.13;7402577;19;19961;-77
2023/08/17 07:44:11;;;;;;;4.60;1.10;;;;;;;18.16;72.19;102305.56;7403927;19;20320;-78
2023/08/17 07:46:42;;;;;;;4.35;0.70;;;;;;;18.16;72.60;102301.97;7404508;19;19968;-77
2023/08/17 07:49:11;;;;;;;1.98;0.55;;;;;;;18.14;72.68;102302.16;7403910;19;19919;-77
2023/08/17 07:51:40;;;;;;;1.27;0.60;;;;;;;18.10;72.32;102315.34;7401503;19;19922;-77
2023/08/17 07:54:11;;;;;;;3.33;0.82;;;;;;;18.09;72.66;102320.97;7403801;19;19938;-77
2023/08/17 07:56:40;;;;;;;2.90;0.68;;;;;;;18.11;72.86;102325.22;7403423;19;19981;-77
2023/08/17 07:59:08;;;;;;;4.78;0.80;;;;;;;18.13;72.66;102320.41;7404993;19;19942;-77
2023/08/17 08:01:39;;;;;;;1.48;0.60;;;;;;;18.14;72.18;102316.63;7402515;19;19926;-77
2023/08/17 08:04:08;;;;;;;2.63;0.60;;;;;;;18.20;72.07;102325.94;7403375;19;19919;-77
2023/08/17 08:06:38;;;;;;;1.60;1.00;;;;;;;18.27;72.19;102317.81;7403034;19;19915;-77
2023/08/17 08:09:07;;;;;;;3.92;1.17;;;;;;;18.35;71.91;102317.72;7403339;19;19918;-77
2023/08/17 08:11:38;;;;;;;5.75;1.00;;;;;;;18.45;72.13;102312.78;7402944;19;19922;-77
2023/08/17 08:14:07;;;;;;;2.17;0.70;;;;;;;18.54;71.53;102319.84;7402995;19;19935;-77
2023/08/17 08:16:35;;;;;;;4.00;1.15;;;;;;;18.66;71.31;102310.09;7402735;19;19942;-77
2023/08/17 08:19:04;;;;;;;4.15;0.80;;;;;;;18.76;71.15;102315.25;7402920;19;19939;-77
2023/08/17 08:21:33;;;;;;;7.43;1.35;;;;;;;18.87;70.45;102323.75;7400297;19;19918;-77
2023/08/17 08:24:01;;;;;;;3.97;0.60;;;;;;;18.95;70.03;102318.13;7402953;19;19918;-77
2023/08/17 08:26:30;;;;;;;3.13;0.93;;;;;;;19.03;69.72;102323.44;7402947;19;19921;-77
2023/08/17 08:29:03;;;;;;;1.33;0.70;;;;;;;19.11;69.48;102327.09;7404088;19;20249;-77
2023/08/17 08:31:31;;;;;;;3.85;0.80;;;;;;;19.18;69.03;102336.19;7403406;19;20401;-76
2023/08/17 08:34:00;;;;;;;2.17;0.70;;;;;;;19.25;69.46;102320.69;7403908;19;19915;-77
2023/08/17 08:36:29;;;;;;;1.70;0.57;;;;;;;19.27;68.40;102324.91;7402753;19;19945;-77
2023/08/17 08:38:58;;;;;;;2.38;0.88;;;;;;;19.31;68.78;102323.47;7403452;19;20283;-76
2023/08/17 08:41:29;;;;;;;3.55;0.82;;;;;;;19.32;68.28;102324.31;7404450;19;19921;-77
2023/08/17 08:43:58;;;;;;;3.60;0.63;;;;;;;19.31;68.36;102318.00;7406321;19;19938;-77
2023/08/17 08:46:33;;;;;;;3.50;0.95;;;;;;;19.24;67.94;102314.38;7405506;19;19914;-77
2023/08/17 08:49:01;;;;;;;1.52;0.75;;;;;;;19.18;67.86;102314.31;7414946;19;19962;-78
2023/08/17 08:51:33;;;;;;;4.47;0.82;;;;;;;19.11;68.05;102313.44;7415062;19;19926;-77
2023/08/17 08:54:05;;;;;;;1.50;0.77;;;;;;;19.08;68.06;102317.41;7408002;19;19915;-77
2023/08/17 08:56:35;;;;;;;5.13;1.00;;;;;;;19.07;68.52;102312.16;7404284;19;19918;-76
2023/08/17 08:59:05;;;;;;;1.60;0.50;;;;;;;19.07;68.27;102323.91;7404060;19;20269;-78
2023/08/17 09:01:38;;;;;;;1.70;0.70;;;;;;;19.09;68.56;102313.63;7401609;19;19925;-77
2023/08/17 09:04:07;;;;;;;4.57;0.90;;;;;;;19.13;68.32;102306.72;7403119;19;19919;-77
2023/08/17 09:06:39;;;;;;;2.50;0.70;;;;;;;19.18;68.46;102314.31;7402569;19;19930;-77
2023/08/17 09:09:10;;;;;;;4.60;1.50;;;;;;;19.27;68.51;102302.22;7402975;19;19919;-77
2023/08/17 09:11:40;;;;;;;1.50;0.70;;;;;;;19.36;67.98;102295.56;7402104;19;19915;-77
2023/08/17 09:14:09;;;;;;;3.20;0.70;;;;;;;19.46;67.82;102296.03;7401999;19;19934;-77
2023/08/17 09:16:41;;;;;;;3.03;0.90;;;;;;;19.61;67.89;102305.00;7401426;19;20547;-77
2023/08/17 09:19:10;;;;;;;3.80;0.80;;;;;;;19.71;67.81;102297.28;7400740;19;19911;-76
2023/08/17 09:21:38;;;;;;;1.83;0.70;;;;;;;19.82;67.21;102287.63;7400483;19;19922;-77
2023/08/17 09:24:09;;;;;;;2.85;0.93;;;;;;;19.92;67.39;102278.00;7401064;19;19923;-77
2023/08/17 09:26:39;;;;;;;3.22;0.93;;;;;;;20.09;66.84;102274.91;7400806;19;19910;-77
2023/08/17 09:29:19;;;;;;;1.52;0.73;;;;;;;20.21;66.40;102276.00;7399977;19;20336;-77
2023/08/17 09:31:50;;;;;;;2.72;0.90;;;;;;;20.33;66.31;102285.31;7400626;19;20340;-77
2023/08/17 09:34:19;;;;;;;3.17;0.90;;;;;;;20.40;65.75;102279.88;7401256;19;19939;-77
2023/08/17 09:36:49;;;;;;;2.60;0.88;;;;;;;20.48;66.25;102274.19;7399980;19;19922;-77
2023/08/17 09:39:20;;;;;;;2.33;0.75;;;;;;;20.55;66.22;102281.34;7399945;19;19927;-77
2023/08/17 09:41:48;;;;;;;4.15;0.80;;;;;;;20.57;64.83;102286.63;7400126;19;19921;-77
2023/08/17 09:44:17;;;;;;;4.13;1.00;;;;;;;20.57;65.60;102284.75;7400709;19;19918;-77
2023/08/17 09:46:46;;;;;;;1.33;0.80;;;;;;;20.63;65.65;102283.03;7400580;19;19942;-77
2023/08/17 09:49:19;;;;;;;3.35;1.10;;;;;;;20.63;65.74;102289.38;7400857;19;19935;-77
2023/08/17 09:51:48;;;;;;;1.13;0.93;;;;;;;20.65;66.06;102281.81;7400420;19;19914;-77
2023/08/17 09:54:26;;;;;;;4.15;0.90;;;;;;;20.67;64.37;102287.91;7400155;19;19919;-77
2023/08/17 09:56:55;;;;;;;5.63;1.10;;;;;;;20.71;64.83;102270.00;7400056;19;20301;-77
2023/08/17 09:59:25;;;;;;;1.67;0.88;;;;;;;20.68;64.91;102270.41;7402564;19;19915;-77
2023/08/17 10:01:54;;;;;;;3.55;1.00;;;;;;;20.71;65.35;102274.66;7399385;19;20413;-77
2023/08/17 10:04:26;;;;;;;4.28;1.10;;;;;;;20.79;64.62;102260.75;7399648;19;19918;-76
2023/08/17 10:07:00;;;;;;;3.63;1.00;;;;;;;20.92;64.84;102248.94;7399608;19;19914;-77
2023/08/17 10:09:39;;;;;;;1.98;0.93;;;;;;;20.95;64.56;102254.84;7400235;19;19942;-77
2023/08/17 10:12:14;;;;;;;2.95;1.10;;;;;;;20.98;64.27;102251.66;7397925;19;19919;-77
2023/08/17 10:14:51;;;;;;;5.28;1.13;;;;;;;21.00;64.16;102245.97;7400036;19;19923;-77
2023/08/17 10:17:28;;;;;;;3.92;1.23;;;;;;;20.99;64.70;102256.09;7400280;19;19946;-77
2023/08/17 10:20:01;;;;;;;1.75;0.85;;;;;;;20.97;64.49;102252.72;7399249;19;19926;-77
2023/08/17 10:22:36;;;;;;;5.57;1.05;;;;;;;21.16;64.36;102251.03;7398505;19;19922;-76
2023/08/17 10:25:08;;;;;;;2.05;0.95;;;;;;;21.25;64.50;102245.13;7399453;19;19926;-77
2023/08/17 10:27:37;;;;;;;1.50;0.88;;;;;;;21.45;63.87;102234.09;7398113;19;19943;-77
2023/08/17 10:30:09;;;;;;;2.88;1.00;;;;;;;21.44;63.90;102243.41;7398751;19;19934;-77
2023/08/17 10:32:38;;;;;;;1.65;0.98;;;;;;;21.37;63.67;102238.97;7399413;19;20427;-77
2023/08/17 10:35:10;;;;;;;4.63;1.00;;;;;;;21.30;63.81;102238.16;7397119;19;19929;-77
2023/08/17 10:37:41;;;;;;;4.05;0.80;;;;;;;21.26;63.98;102240.50;7397516;19;19918;-77
2023/08/17 10:40:12;;;;;;;1.75;0.90;;;;;;;21.21;64.59;102237.53;7397723;19;19906;-77
2023/08/17 10:42:40;;;;;;;4.15;1.30;;;;;;;21.18;65.10;102238.78;7401120;19;19931;-77
2023/08/17 10:45:31;;;;;;;2.38;1.13;;;;;;;21.07;64.39;102247.66;7405278;19;19919;-78
2023/08/17 10:48:32;;;;;;;3.45;1.20;;;;;;;21.06;64.48;102245.09;7405107;19;19914;-77
2023/08/17 10:51:06;;;;;;;2.78;1.10;;;;;;;21.26;65.11;102249.56;7405329;19;19921;-77
2023/08/17 10:53:38;;;;;;;1.90;1.30;;;;;;;21.49;63.74;102251.78;7404981;19;19918;-77
2023/08/17 10:56:11;;;;;;;2.90;1.00;;;;;;;21.64;63.98;102244.16;7404920;19;19978;-77
2023/08/17 10:58:40;;;;;;;2.80;0.90;;;;;;;21.88;63.37;102241.72;7406661;19;19915;-77
2023/08/17 11:01:09;;;;;;;4.45;1.00;;;;;;;22.05;63.59;102237.44;7404705;19;20399;-77
2023/08/17 11:03:39;;;;;;;3.97;1.00;;;;;;;22.11;63.18;102247.56;7402498;19;19919;-76
2023/08/17 11:06:21;;;;;;;1.63;1.00;;;;;;;22.08;61.77;102245.25;7404579;19;19919;-77
2023/08/17 11:08:58;;;;;;;5.10;0.88;;;;;;;21.94;62.74;102243.66;7404793;19;20257;-77
2023/08/17 11:11:33;;;;;;;2.17;0.93;;;;;;;21.91;63.27;102244.06;7404730;19;19935;-77
2023/08/17 11:14:02;;;;;;;3.13;1.40;;;;;;;21.78;63.15;102238.63;7404738;19;19933;-77
2023/08/17 11:16:30;;;;;;;1.98;0.80;;;;;;;21.71;63.88;102241.38;7404961;19;19922;-77
2023/08/17 11:18:59;;;;;;;2.15;0.90;;;;;;;21.70;63.68;102242.47;7404588;19;19939;-78
2023/08/17 11:21:31;;;;;;;1.92;1.20;;;;;;;21.70;63.67;102237.78;7404737;19;19936;-77
2023/08/17 11:24:00;;;;;;;6.38;1.20;;;;;;;21.67;63.71;102230.00;7402359;19;19922;-77
2023/08/17 11:26:29;;;;;;;2.35;0.93;;;;;;;21.72;63.54;102234.84;7404892;19;19923;-77
2023/08/17 11:28:58;;;;;;;3.38;1.08;;;;;;;21.84;63.87;102224.88;7404592;19;19946;-77
2023/08/17 11:31:28;;;;;;;2.83;1.10;;;;;;;22.02;62.56;102233.25;7405934;19;19919;-77
2023/08/17 11:33:57;;;;;;;2.60;1.00;;;;;;;22.14;62.10;102226.00;7406086;19;20646;-77
2023/08/17 11:36:25;;;;;;;5.05;1.10;;;;;;;22.23;62.67;102210.09;7403782;19;19950;-77